Time;durP1;ratioP1;P1;durP2;ratioP2;P2;SDS_P1;SDS_P2;PMS_P1;PMS_P2;Temp;Humidity;BMP_temperature;BMP_pressure;BME280_temperature;BME280_humidity;BME280_pressure;Samples;Min_cycle;Max_cycle;Signal;HPM_P1;HPM_P2
2022/05/30 00:00:19;;;;;;;2.58;1.63;;;23.00;46.10;;;;;;5039848;28;20135;-58
2022/05/30 00:02:46;;;;;;;2.83;1.52;;;23.00;46.10;;;;;;5039072;28;20109;-61
2022/05/30 00:05:12;;;;;;;2.70;1.80;;;23.00;46.10;;;;;;5038208;28;20527;-57
2022/05/30 00:07:39;;;;;;;3.10;1.80;;;22.90;46.00;;;;;;5036468;28;20036;-63
2022/05/30 00:10:07;;;;;;;2.67;1.70;;;23.00;46.10;;;;;;5038218;28;20021;-64
2022/05/30 00:12:33;;;;;;;3.93;1.90;;;22.90;46.00;;;;;;5039685;28;20035;-62
2022/05/30 00:14:59;;;;;;;3.67;1.70;;;23.00;46.10;;;;;;5038116;28;20188;-60
2022/05/30 00:17:25;;;;;;;2.80;1.70;;;22.90;46.00;;;;;;5039502;28;20445;-63
2022/05/30 00:19:51;;;;;;;3.53;1.88;;;22.90;46.00;;;;;;5038875;28;20029;-58
2022/05/30 00:22:18;;;;;;;3.35;1.88;;;22.90;46.00;;;;;;5036100;28;20032;-59
2022/05/30 00:24:44;;;;;;;2.90;1.50;;;22.90;46.00;;;;;;5038025;28;20119;-62
2022/05/30 00:27:11;;;;;;;2.97;1.75;;;22.90;46.00;;;;;;5036736;28;20040;-58
2022/05/30 00:29:37;;;;;;;3.03;1.65;;;22.90;46.00;;;;;;5040342;28;20381;-63
2022/05/30 00:32:05;;;;;;;3.20;1.75;;;22.90;46.00;;;;;;5038842;28;20037;-62
2022/05/30 00:34:32;;;;;;;2.83;1.75;;;22.90;46.00;;;;;;5039293;28;20036;-63
2022/05/30 00:36:57;;;;;;;2.90;1.67;;;22.90;46.00;;;;;;5033796;28;20369;-62
2022/05/30 00:39:23;;;;;;;3.20;1.80;;;22.90;46.00;;;;;;5037293;28;20029;-61
2022/05/30 00:41:48;;;;;;;2.50;1.52;;;22.90;46.00;;;;;;5038745;28;20044;-58
2022/05/30 00:44:14;;;;;;;2.50;1.58;;;22.90;46.00;;;;;;5039115;28;20029;-60
2022/05/30 00:46:40;;;;;;;3.00;1.63;;;22.90;46.00;;;;;;5037973;28;20033;-59
2022/05/30 00:49:10;;;;;;;2.60;1.50;;;22.90;46.00;;;;;;5037297;28;20033;-58
2022/05/30 00:51:54;;;;;;;3.05;1.92;;;22.80;46.00;;;;;;5037225;28;20040;-59
2022/05/30 00:54:24;;;;;;;2.63;1.45;;;22.90;46.00;;;;;;5038410;28;20045;-64
2022/05/30 00:56:53;;;;;;;3.03;1.80;;;22.90;46.00;;;;;;5038846;28;20500;-58
2022/05/30 00:59:18;;;;;;;3.05;1.60;;;22.90;46.00;;;;;;5037110;28;20071;-62
2022/05/30 01:01:44;;;;;;;2.58;1.50;;;22.80;46.00;;;;;;5037082;28;20504;-58
2022/05/30 01:06:58;;;;;;;3.03;1.77;;;22.80;46.00;;;;;;5034947;28;20035;-59
2022/05/30 01:09:28;;;;;;;2.20;1.30;;;22.80;45.90;;;;;;5037658;28;20029;-61
2022/05/30 01:12:11;;;;;;;2.63;1.48;;;22.80;46.00;;;;;;5038267;28;20389;-64
2022/05/30 01:14:39;;;;;;;2.63;1.80;;;22.80;46.00;;;;;;5038666;28;20103;-58
2022/05/30 01:17:08;;;;;;;3.03;1.50;;;22.80;46.00;;;;;;5037878;28;20357;-58
2022/05/30 01:20:02;;;;;;;2.75;1.70;;;22.80;46.00;;;;;;5038964;28;20359;-60
2022/05/30 01:22:57;;;;;;;2.42;1.40;;;22.80;45.90;;;;;;5033642;28;20446;-59
2022/05/30 01:25:38;;;;;;;2.80;1.60;;;22.80;46.00;;;;;;5037969;28;20028;-59
2022/05/30 01:28:10;;;;;;;2.60;1.70;;;22.80;46.00;;;;;;5036835;28;20029;-61
2022/05/30 01:30:38;;;;;;;1.80;1.30;;;22.80;46.00;;;;;;5036706;28;20072;-64
2022/05/30 01:33:05;;;;;;;2.70;1.57;;;22.80;46.00;;;;;;5037524;28;20047;-57
2022/05/30 01:35:31;;;;;;;2.22;1.42;;;22.70;45.90;;;;;;5037012;28;20800;-63
2022/05/30 01:37:57;;;;;;;2.20;1.40;;;22.80;46.00;;;;;;5034382;28;20029;-63
2022/05/30 01:40:26;;;;;;;2.22;1.42;;;22.80;46.00;;;;;;5036783;28;20029;-60
2022/05/30 01:42:53;;;;;;;3.30;1.70;;;22.80;46.00;;;;;;5036787;28;20060;-57
2022/05/30 01:45:19;;;;;;;2.47;1.33;;;22.80;46.00;;;;;;5036824;28;21173;-64
2022/05/30 01:47:45;;;;;;;2.55;1.27;;;22.70;45.90;;;;;;5034795;28;20086;-61
2022/05/30 01:50:11;;;;;;;2.30;1.40;;;22.70;45.90;;;;;;5037250;28;20029;-60
2022/05/30 01:52:37;;;;;;;2.38;1.50;;;22.70;45.90;;;;;;5034244;28;20021;-58
2022/05/30 01:55:03;;;;;;;2.55;1.45;;;22.70;45.90;;;;;;5034172;28;20071;-63
2022/05/30 01:57:29;;;;;;;1.98;1.25;;;22.70;45.90;;;;;;5036612;28;20063;-63
2022/05/30 01:59:54;;;;;;;2.15;1.40;;;22.70;45.90;;;;;;5038495;28;20074;-61
2022/05/30 02:02:20;;;;;;;2.05;1.40;;;22.70;46.40;;;;;;5035183;28;20086;-63
2022/05/30 02:04:45;;;;;;;2.78;1.52;;;22.70;45.90;;;;;;5037028;28;20029;-64
2022/05/30 02:07:11;;;;;;;2.58;1.65;;;22.70;45.90;;;;;;5032936;28;20025;-63
2022/05/30 02:09:37;;;;;;;2.75;1.50;;;22.70;45.90;;;;;;5037095;28;20029;-57
2022/05/30 02:12:03;;;;;;;2.35;1.25;;;22.70;45.90;;;;;;5035964;28;20083;-62
2022/05/30 02:14:29;;;;;;;2.10;1.30;;;22.70;45.90;;;;;;5037466;28;20040;-59
2022/05/30 02:17:01;;;;;;;2.13;1.40;;;22.60;45.80;;;;;;5035752;28;20036;-58
2022/05/30 02:19:28;;;;;;;2.53;1.40;;;22.70;45.90;;;;;;5037492;28;20346;-63
2022/05/30 02:21:54;;;;;;;2.33;1.40;;;22.70;45.90;;;;;;5033026;28;20025;-59
2022/05/30 02:24:20;;;;;;;2.20;1.25;;;22.70;45.90;;;;;;5036115;28;20029;-63
2022/05/30 02:26:45;;;;;;;2.30;1.30;;;22.60;45.80;;;;;;5035403;28;20029;-59
2022/05/30 02:29:11;;;;;;;2.08;1.60;;;22.70;45.90;;;;;;5036182;28;20365;-64
2022/05/30 02:31:37;;;;;;;2.13;1.40;;;22.60;45.80;;;;;;5035720;28;20037;-62
2022/05/30 02:36:48;;;;;;;2.15;1.38;;;22.70;46.00;;;;;;5034066;28;20070;-58
2022/05/30 02:39:16;;;;;;;1.85;1.13;;;22.60;45.80;;;;;;5034334;28;20493;-65
2022/05/30 02:41:44;;;;;;;1.93;1.10;;;22.60;45.80;;;;;;5036168;28;20123;-60
2022/05/30 02:44:11;;;;;;;2.05;1.30;;;22.60;45.80;;;;;;5035398;28;20344;-59
2022/05/30 02:46:37;;;;;;;2.00;1.20;;;22.60;45.80;;;;;;5035340;28;20067;-63
2022/05/30 02:49:02;;;;;;;2.05;1.30;;;22.60;45.80;;;;;;5037653;28;20021;-64
2022/05/30 02:51:28;;;;;;;2.50;1.45;;;22.60;45.90;;;;;;5034010;28;20666;-60
2022/05/30 02:53:54;;;;;;;2.47;1.42;;;22.60;45.90;;;;;;5035030;28;20416;-58
2022/05/30 02:56:19;;;;;;;2.63;1.30;;;22.60;45.90;;;;;;5035964;28;20107;-60
2022/05/30 02:58:45;;;;;;;2.63;1.30;;;22.60;45.90;;;;;;5035902;28;20054;-60
2022/05/30 03:01:11;;;;;;;2.10;1.20;;;22.60;45.80;;;;;;5033728;28;20052;-61
2022/05/30 03:03:37;;;;;;;2.85;1.40;;;22.60;45.90;;;;;;5034972;28;20102;-63
2022/05/30 03:06:04;;;;;;;2.38;1.48;;;22.60;45.90;;;;;;5033854;28;20046;-61
2022/05/30 03:08:30;;;;;;;1.65;1.10;;;22.60;45.90;;;;;;5035619;28;20120;-57
2022/05/30 03:10:56;;;;;;;1.50;0.95;;;22.60;45.90;;;;;;5035066;28;20071;-62
2022/05/30 03:13:22;;;;;;;2.50;1.40;;;22.60;45.90;;;;;;5034927;28;20086;-59
2022/05/30 03:15:47;;;;;;;1.60;1.10;;;22.50;45.80;;;;;;5035390;28;20051;-64
2022/05/30 03:18:13;;;;;;;1.88;1.20;;;22.50;45.80;;;;;;5034879;28;20037;-64
2022/05/30 03:20:39;;;;;;;2.05;1.23;;;22.50;46.40;;;;;;5035257;28;20048;-62
2022/05/30 03:23:05;;;;;;;2.13;1.17;;;22.50;45.90;;;;;;5032911;28;20503;-59
2022/05/30 03:25:31;;;;;;;1.92;1.15;;;22.50;45.80;;;;;;5036511;28;20678;-59
2022/05/30 03:27:56;;;;;;;1.80;1.20;;;22.50;45.80;;;;;;5034258;28;20040;-60
2022/05/30 03:30:23;;;;;;;2.15;1.10;;;22.50;45.80;;;;;;5034818;28;20021;-63
2022/05/30 03:32:49;;;;;;;1.90;1.10;;;22.50;45.90;;;;;;5035678;28;20036;-59
2022/05/30 03:35:16;;;;;;;1.85;1.15;;;22.50;45.80;;;;;;5034666;28;20101;-63
2022/05/30 03:37:43;;;;;;;1.70;1.10;;;22.50;45.80;;;;;;5031772;28;20310;-59
2022/05/30 03:40:12;;;;;;;2.53;1.30;;;22.50;45.80;;;;;;5031227;28;20447;-64
2022/05/30 03:42:38;;;;;;;1.75;1.10;;;22.50;45.80;;;;;;5035295;28;20112;-64
2022/05/30 03:45:05;;;;;;;2.20;1.20;;;22.50;45.80;;;;;;5034813;28;20804;-63
2022/05/30 03:47:41;;;;;;;2.17;1.20;;;22.50;45.80;;;;;;5037297;28;20048;-58
2022/05/30 03:50:10;;;;;;;1.63;1.17;;;22.50;45.80;;;;;;5037320;28;20037;-63
2022/05/30 03:52:36;;;;;;;2.45;1.38;;;22.50;45.80;;;;;;5032881;28;20443;-61
2022/05/30 03:55:08;;;;;;;1.70;1.05;;;22.40;45.80;;;;;;5036358;28;20076;-59
2022/05/30 03:57:33;;;;;;;2.13;1.25;;;22.50;45.80;;;;;;5035906;28;20052;-62
2022/05/30 03:59:59;;;;;;;1.98;1.05;;;22.50;45.80;;;;;;5032507;28;20025;-62
2022/05/30 04:02:25;;;;;;;1.30;1.00;;;22.40;45.80;;;;;;5030607;28;20462;-62
2022/05/30 04:04:51;;;;;;;1.60;1.20;;;22.40;45.80;;;;;;5034797;28;20060;-58
2022/05/30 04:07:16;;;;;;;1.77;0.93;;;22.40;45.80;;;;;;5032517;28;20075;-63
2022/05/30 04:09:43;;;;;;;2.42;1.33;;;22.40;45.80;;;;;;5035576;28;20028;-58
2022/05/30 04:12:09;;;;;;;2.28;1.15;;;22.40;45.80;;;;;;5038808;28;20087;-62
2022/05/30 04:14:35;;;;;;;2.38;1.27;;;22.40;45.80;;;;;;5039247;28;20116;-63
2022/05/30 04:17:01;;;;;;;1.70;1.00;;;22.40;45.80;;;;;;5038614;28;20128;-61
2022/05/30 04:19:26;;;;;;;1.30;1.00;;;22.40;45.80;;;;;;5039825;28;20082;-59
2022/05/30 04:21:52;;;;;;;1.45;0.90;;;22.40;45.80;;;;;;5036440;28;20500;-60
2022/05/30 04:24:17;;;;;;;1.63;1.00;;;22.40;45.80;;;;;;5036627;28;20097;-59
2022/05/30 04:26:44;;;;;;;2.00;1.20;;;22.40;45.80;;;;;;5037831;28;20035;-61
2022/05/30 04:29:10;;;;;;;1.90;1.10;;;22.40;45.80;;;;;;5036118;28;20039;-62
2022/05/30 04:31:36;;;;;;;1.33;0.98;;;22.40;45.80;;;;;;5039111;28;20047;-63
2022/05/30 04:34:02;;;;;;;1.60;1.10;;;22.40;45.80;;;;;;5038538;28;20104;-59
2022/05/30 04:36:28;;;;;;;1.63;0.90;;;22.40;45.80;;;;;;5037821;28;20062;-58
2022/05/30 04:38:53;;;;;;;1.63;1.08;;;22.40;45.90;;;;;;5037556;28;20355;-64
2022/05/30 04:41:19;;;;;;;1.77;1.08;;;22.40;45.80;;;;;;5038717;28;20120;-58
2022/05/30 04:43:44;;;;;;;1.70;1.10;;;22.40;45.80;;;;;;5037883;28;20021;-63
2022/05/30 04:46:21;;;;;;;2.00;1.10;;;22.40;45.80;;;;;;5045386;28;20032;-63
2022/05/30 04:48:46;;;;;;;1.30;0.90;;;22.40;45.80;;;;;;5037734;28;20025;-62
2022/05/30 04:51:12;;;;;;;1.40;0.98;;;22.40;45.80;;;;;;5035535;28;20029;-63
2022/05/30 04:53:40;;;;;;;2.03;1.00;;;22.30;45.80;;;;;;5038242;28;20079;-62
2022/05/30 04:56:06;;;;;;;1.60;0.90;;;22.30;45.80;;;;;;5030854;28;20033;-61
2022/05/30 04:58:35;;;;;;;1.10;0.80;;;22.30;45.80;;;;;;5037177;28;20047;-63
2022/05/30 05:01:06;;;;;;;1.38;1.00;;;22.30;45.80;;;;;;5035999;28;20033;-61
2022/05/30 05:03:33;;;;;;;1.27;0.90;;;22.30;45.80;;;;;;5038615;28;20114;-59
2022/05/30 05:06:04;;;;;;;1.70;1.00;;;22.30;45.80;;;;;;5036853;28;20033;-62
2022/05/30 05:08:51;;;;;;;1.40;1.00;;;22.30;45.80;;;;;;5037485;28;20045;-63
2022/05/30 05:11:22;;;;;;;1.35;0.90;;;22.30;45.80;;;;;;5037713;28;20039;-63
2022/05/30 05:13:48;;;;;;;1.92;1.00;;;22.30;45.80;;;;;;5035102;28;20415;-58
2022/05/30 05:16:15;;;;;;;1.38;1.00;;;22.30;45.80;;;;;;5038873;28;20109;-64
2022/05/30 05:18:41;;;;;;;1.52;0.88;;;22.30;45.80;;;;;;5038040;28;20475;-59
2022/05/30 05:21:07;;;;;;;1.33;0.93;;;22.30;45.80;;;;;;5036158;28;20085;-57
2022/05/30 05:23:34;;;;;;;1.20;0.90;;;22.30;45.80;;;;;;5037143;28;20033;-60
2022/05/30 05:26:02;;;;;;;1.20;0.90;;;22.30;45.80;;;;;;5037415;28;20065;-64
2022/05/30 05:28:28;;;;;;;1.23;0.93;;;22.30;45.80;;;;;;5038901;28;20020;-64
2022/05/30 05:30:54;;;;;;;1.10;0.88;;;22.30;45.80;;;;;;5039027;28;20063;-59
2022/05/30 05:33:19;;;;;;;1.55;1.00;;;22.30;45.80;;;;;;5037954;28;20037;-60
2022/05/30 05:35:46;;;;;;;1.77;1.00;;;22.30;45.80;;;;;;5038469;28;20060;-59
2022/05/30 05:38:13;;;;;;;1.65;1.00;;;22.30;45.80;;;;;;5035900;28;20116;-59
2022/05/30 05:40:43;;;;;;;1.48;0.95;;;22.30;45.80;;;;;;5038836;28;20401;-59
2022/05/30 05:43:09;;;;;;;1.27;1.00;;;22.30;45.80;;;;;;5038404;28;20029;-59
2022/05/30 05:45:40;;;;;;;1.27;0.90;;;22.30;45.80;;;;;;5037039;28;20029;-63
2022/05/30 05:48:07;;;;;;;1.33;1.00;;;22.30;45.80;;;;;;5036586;28;20346;-59
2022/05/30 05:50:33;;;;;;;1.50;1.00;;;22.30;45.80;;;;;;5037161;28;20067;-59
2022/05/30 05:52:58;;;;;;;1.67;1.10;;;22.20;45.80;;;;;;5034685;28;20439;-63
2022/05/30 05:55:25;;;;;;;1.70;0.90;;;22.20;45.80;;;;;;5036426;28;20182;-58
2022/05/30 05:57:51;;;;;;;1.02;0.85;;;22.20;45.80;;;;;;5035944;28;20119;-59
2022/05/30 06:00:17;;;;;;;1.67;1.02;;;22.20;45.80;;;;;;5037086;28;20193;-63
2022/05/30 06:02:43;;;;;;;1.10;0.80;;;22.20;45.80;;;;;;5037137;28;20059;-61
2022/05/30 06:05:10;;;;;;;1.35;0.98;;;22.20;45.80;;;;;;5037322;28;20072;-64
2022/05/30 06:07:38;;;;;;;0.95;0.70;;;22.20;45.80;;;;;;5034155;28;20029;-63
2022/05/30 06:10:06;;;;;;;1.33;0.90;;;22.20;45.80;;;;;;5035602;28;20029;-64
2022/05/30 06:12:37;;;;;;;1.00;0.82;;;22.20;45.90;;;;;;5036237;28;20033;-59
2022/05/30 06:15:07;;;;;;;1.02;0.73;;;22.20;45.90;;;;;;5036567;28;20354;-58
2022/05/30 06:17:32;;;;;;;1.25;0.80;;;22.20;45.90;;;;;;5035492;28;20025;-62
2022/05/30 06:19:59;;;;;;;1.50;0.95;;;22.20;45.90;;;;;;5037086;28;20029;-61
2022/05/30 06:22:25;;;;;;;0.98;0.73;;;22.20;45.90;;;;;;5033762;28;20266;-58
2022/05/30 06:24:50;;;;;;;1.10;0.80;;;22.20;46.40;;;;;;5036198;28;20083;-63
2022/05/30 06:27:18;;;;;;;1.52;0.85;;;22.20;45.90;;;;;;5035338;28;20109;-63
2022/05/30 06:29:44;;;;;;;1.15;0.80;;;22.20;45.90;;;;;;5035438;28;20024;-59
2022/05/30 06:32:10;;;;;;;1.02;0.75;;;22.20;45.90;;;;;;5035240;28;20051;-59
2022/05/30 06:34:36;;;;;;;1.67;0.90;;;22.20;46.00;;;;;;5038007;28;20111;-62
2022/05/30 06:37:02;;;;;;;0.95;0.75;;;22.20;45.90;;;;;;5033978;28;20472;-61
2022/05/30 06:39:28;;;;;;;0.90;0.70;;;22.20;45.90;;;;;;5034938;28;20116;-59
2022/05/30 06:41:53;;;;;;;1.15;0.80;;;22.20;45.90;;;;;;5037302;28;20374;-60
2022/05/30 06:44:19;;;;;;;1.00;0.80;;;22.10;45.90;;;;;;5036694;28;20033;-63
2022/05/30 06:46:45;;;;;;;0.75;0.68;;;22.20;46.00;;;;;;5035639;28;20036;-63
2022/05/30 06:49:11;;;;;;;0.60;0.60;;;22.20;45.90;;;;;;5035615;28;20242;-58
2022/05/30 06:51:37;;;;;;;1.10;0.75;;;22.20;46.00;;;;;;5034574;28;20025;-63
2022/05/30 06:54:05;;;;;;;0.95;0.88;;;22.10;45.90;;;;;;5033415;28;20043;-61
2022/05/30 06:56:37;;;;;;;1.13;0.80;;;22.10;45.90;;;;;;5035738;28;20120;-62
2022/05/30 06:59:03;;;;;;;1.13;0.80;;;22.10;45.90;;;;;;5036959;28;20029;-59
2022/05/30 07:01:34;;;;;;;1.23;0.70;;;22.10;46.00;;;;;;5035095;28;20434;-57
2022/05/30 07:03:59;;;;;;;1.33;0.80;;;22.10;46.00;;;;;;5036847;28;20086;-63
2022/05/30 07:06:32;;;;;;;1.05;0.75;;;22.10;46.00;;;;;;5034914;28;20033;-59
2022/05/30 07:08:58;;;;;;;1.20;0.70;;;22.10;46.00;;;;;;5034116;28;20064;-57
2022/05/30 07:11:24;;;;;;;1.30;0.90;;;22.10;46.50;;;;;;5036368;28;20066;-63
2022/05/30 07:13:50;;;;;;;0.88;0.80;;;22.10;46.00;;;;;;5035673;28;20539;-63
2022/05/30 07:16:17;;;;;;;0.93;0.68;;;22.10;46.00;;;;;;5035088;28;20515;-62
2022/05/30 07:18:43;;;;;;;1.15;0.70;;;22.10;46.00;;;;;;5034498;28;20029;-61
2022/05/30 07:21:12;;;;;;;0.85;0.73;;;22.10;46.00;;;;;;5032425;28;20098;-59
2022/05/30 07:23:38;;;;;;;1.10;0.70;;;22.10;46.00;;;;;;5035629;28;20381;-60
2022/05/30 07:26:08;;;;;;;1.17;0.88;;;22.10;46.00;;;;;;5034933;28;20024;-60
2022/05/30 07:28:34;;;;;;;0.88;0.77;;;22.10;46.10;;;;;;5036033;28;20040;-62
2022/05/30 07:31:12;;;;;;;1.08;0.80;;;22.10;46.00;;;;;;5035530;28;20584;-60
2022/05/30 07:33:39;;;;;;;0.60;0.60;;;22.10;46.10;;;;;;5035110;28;20025;-59
2022/05/30 07:36:11;;;;;;;1.20;0.75;;;22.10;46.10;;;;;;5032688;28;20060;-63
2022/05/30 07:38:37;;;;;;;0.80;0.70;;;22.10;46.10;;;;;;5035937;28;20060;-63
2022/05/30 07:41:03;;;;;;;1.02;0.75;;;22.10;46.10;;;;;;5036720;28;20036;-63
2022/05/30 07:43:29;;;;;;;1.27;0.70;;;22.10;46.10;;;;;;5036601;28;20037;-58
2022/05/30 07:45:59;;;;;;;0.60;0.60;;;22.10;46.20;;;;;;5035675;28;20039;-62
2022/05/30 07:48:24;;;;;;;1.05;0.77;;;22.10;46.20;;;;;;5039070;28;20032;-59
2022/05/30 07:50:57;;;;;;;0.60;0.60;;;22.10;46.20;;;;;;5038910;28;20071;-59
2022/05/30 07:53:24;;;;;;;0.98;0.70;;;22.10;46.20;;;;;;5036132;28;20025;-59
2022/05/30 07:55:49;;;;;;;1.10;0.80;;;22.10;46.20;;;;;;5037720;28;20037;-60
2022/05/30 07:58:15;;;;;;;0.80;0.60;;;22.10;46.20;;;;;;5039629;28;20033;-57
2022/05/30 08:00:40;;;;;;;1.15;0.60;;;22.10;46.20;;;;;;5038329;28;20048;-61
2022/05/30 08:03:11;;;;;;;1.70;0.70;;;22.00;46.20;;;;;;5040289;28;20025;-62
2022/05/30 08:05:38;;;;;;;0.77;0.70;;;22.10;46.30;;;;;;5039377;28;20033;-60
2022/05/30 08:08:04;;;;;;;0.73;0.63;;;22.10;46.20;;;;;;5037738;28;20048;-58
2022/05/30 08:10:29;;;;;;;1.05;0.60;;;22.10;46.20;;;;;;5038346;28;20084;-60
2022/05/30 08:12:55;;;;;;;0.88;0.70;;;22.00;46.20;;;;;;5040006;28;20048;-59
2022/05/30 08:15:20;;;;;;;0.77;0.77;;;22.10;46.30;;;;;;5038371;28;20037;-60
2022/05/30 08:17:47;;;;;;;1.17;0.70;;;22.10;46.30;;;;;;5038714;28;20554;-60
2022/05/30 08:20:16;;;;;;;0.88;0.70;;;22.00;46.20;;;;;;5039018;28;20032;-60
2022/05/30 08:22:41;;;;;;;0.60;0.60;;;22.10;46.30;;;;;;5035331;28;20059;-61
2022/05/30 08:25:14;;;;;;;0.73;0.70;;;22.00;46.20;;;;;;5037441;28;20036;-57
2022/05/30 08:27:40;;;;;;;1.00;0.70;;;22.10;46.30;;;;;;5038150;28;20025;-59
2022/05/30 08:30:07;;;;;;;0.70;0.57;;;22.00;46.20;;;;;;5038283;28;20063;-62
2022/05/30 08:32:34;;;;;;;0.95;0.70;;;22.10;46.30;;;;;;5057974;28;20044;-61
2022/05/30 08:35:02;;;;;;;0.60;0.60;;;22.10;46.30;;;;;;5056804;28;20484;-63
2022/05/30 08:37:30;;;;;;;0.70;0.70;;;22.10;46.30;;;;;;5055037;28;20450;-63
2022/05/30 08:42:43;;;;;;;0.70;0.60;;;22.00;46.30;;;;;;5057114;28;20082;-56
2022/05/30 08:45:09;;;;;;;0.65;0.60;;;22.10;46.40;;;;;;5056756;28;20480;-63
2022/05/30 08:47:50;;;;;;;0.68;0.68;;;22.10;46.40;;;;;;5058538;28;20199;-59
2022/05/30 08:50:40;;;;;;;0.68;0.50;;;22.00;46.30;;;;;;5057399;28;20024;-61
2022/05/30 08:53:31;;;;;;;0.60;0.60;;;22.00;46.30;;;;;;5056188;28;20071;-59
2022/05/30 08:56:06;;;;;;;1.05;0.65;;;22.00;46.40;;;;;;5056541;28;20541;-60
2022/05/30 08:58:44;;;;;;;0.70;0.70;;;22.00;46.40;;;;;;5060444;28;20445;-61
2022/05/30 09:01:21;;;;;;;0.57;0.57;;;22.00;46.40;;;;;;5056366;28;20044;-59
2022/05/30 09:04:06;;;;;;;0.75;0.60;;;22.00;46.40;;;;;;5059084;28;20024;-58
2022/05/30 09:06:34;;;;;;;0.70;0.60;;;22.00;46.40;;;;;;5055846;28;20016;-59
2022/05/30 09:09:27;;;;;;;0.80;0.68;;;22.00;46.50;;;;;;5056211;28;20438;-63
2022/05/30 09:12:01;;;;;;;0.70;0.60;;;22.00;46.40;;;;;;5041498;28;20516;-59
2022/05/30 09:15:11;;;;;;;1.17;0.50;;;22.00;46.50;;;;;;5056854;28;20116;-62
2022/05/30 09:17:47;;;;;;;0.60;0.50;;;22.00;46.50;;;;;;5057474;28;20036;-62
2022/05/30 09:20:16;;;;;;;0.50;0.50;;;22.00;46.50;;;;;;5058359;28;20051;-58
2022/05/30 09:22:43;;;;;;;0.60;0.60;;;22.00;46.50;;;;;;5055690;28;20032;-59
2022/05/30 09:28:03;;;;;;;0.80;0.60;;;22.10;46.60;;;;;;5057486;28;20039;-65
2022/05/30 09:30:54;;;;;;;0.55;0.50;;;22.00;46.50;;;;;;5055458;28;20499;-59
2022/05/30 09:33:30;;;;;;;0.90;0.60;;;22.10;46.60;;;;;;5056264;28;20111;-63
2022/05/30 09:36:12;;;;;;;0.88;0.60;;;22.10;46.60;;;;;;5053618;28;20409;-60
2022/05/30 09:38:59;;;;;;;0.70;0.60;;;22.00;46.50;;;;;;5054930;28;20052;-60
2022/05/30 09:41:27;;;;;;;0.77;0.50;;;22.10;46.60;;;;;;5054941;28;20999;-64
2022/05/30 09:44:01;;;;;;;0.83;0.63;;;22.00;46.50;;;;;;5056115;28;20050;-62
2022/05/30 09:46:30;;;;;;;1.48;0.73;;;22.00;46.50;;;;;;5054829;28;20567;-58
2022/05/30 09:49:05;;;;;;;1.25;0.60;;;22.00;46.50;;;;;;5055077;28;20516;-59
2022/05/30 09:51:43;;;;;;;0.60;0.50;;;22.00;46.60;;;;;;5052607;28;20044;-60
2022/05/30 09:54:28;;;;;;;0.60;0.60;;;22.00;46.50;;;;;;5055214;28;20071;-60
2022/05/30 09:57:07;;;;;;;0.65;0.50;;;22.00;46.60;;;;;;5056349;28;20099;-60
2022/05/30 09:59:40;;;;;;;;;;;22.10;46.60;;;;;;5056767;28;20416;-61
2022/05/30 10:02:26;;;;;;;0.95;0.60;;;22.00;46.60;;;;;;5056249;28;19916;-58
2022/05/30 10:05:27;;;;;;;0.80;0.60;;;22.00;46.60;;;;;;5058063;28;20919;-60
2022/05/30 10:07:57;;;;;;;0.90;0.60;;;22.00;46.50;;;;;;5054283;28;20516;-63
2022/05/30 10:10:36;;;;;;;0.98;0.60;;;22.00;46.60;;;;;;5055802;28;20024;-61
2022/05/30 10:13:07;;;;;;;0.75;0.57;;;22.00;46.50;;;;;;5056347;28;20032;-58
2022/05/30 10:15:37;;;;;;;0.80;0.60;;;22.00;46.50;;;;;;5057188;28;20028;-58
2022/05/30 10:18:17;;;;;;;1.60;0.90;;;22.00;46.60;;;;;;5056030;28;20490;-61
2022/05/30 10:21:23;;;;;;;0.70;0.52;;;22.00;46.50;;;;;;5055167;28;20705;-59
2022/05/30 10:30:11;;;;;;;0.68;0.57;;;22.00;46.40;;;;;;5057372;28;20029;-58
2022/05/30 10:32:48;;;;;;;0.93;0.60;;;22.00;46.40;;;;;;5054889;28;20440;-59
2022/05/30 10:35:21;;;;;;;0.90;0.65;;;22.10;46.40;;;;;;5055447;28;20123;-59
2022/05/30 10:37:49;;;;;;;0.60;0.50;;;22.10;46.40;;;;;;5054033;28;20471;-58
2022/05/30 10:40:35;;;;;;;0.50;0.50;;;22.10;46.40;;;;;;5056517;28;20028;-63
2022/05/30 10:43:13;;;;;;;1.15;0.98;;;22.10;46.30;;;;;;5043852;28;20075;-62
2022/05/30 10:45:51;;;;;;;0.93;0.60;;;22.10;46.30;;;;;;5055709;28;20496;-58
2022/05/30 10:48:43;;;;;;;0.82;0.60;;;22.10;46.20;;;;;;5056822;28;20028;-62
2022/05/30 10:51:14;;;;;;;0.80;0.60;;;22.10;46.20;;;;;;5053943;28;20032;-63
2022/05/30 10:53:43;;;;;;;0.57;0.55;;;22.10;46.10;;;;;;5056001;28;20020;-62
2022/05/30 10:56:18;;;;;;;0.50;0.50;;;22.10;46.10;;;;;;5056627;28;20443;-63
2022/05/30 10:58:48;;;;;;;1.02;0.60;;;22.10;46.00;;;;;;5056820;28;20036;-59
2022/05/30 11:01:45;;;;;;;0.70;0.55;;;22.10;45.90;;;;;;5053365;28;20497;-60
2022/05/30 11:04:34;;;;;;;0.93;0.60;;;22.10;45.90;;;;;;5033906;28;20040;-63
2022/05/30 11:07:16;;;;;;;0.80;0.70;;;22.10;45.90;;;;;;5053138;28;20027;-63
2022/05/30 11:09:51;;;;;;;1.17;0.70;;;22.10;45.80;;;;;;5056058;28;20480;-58
2022/05/30 11:12:27;;;;;;;0.98;0.70;;;22.10;45.80;;;;;;5054637;28;20119;-62
2022/05/30 11:15:14;;;;;;;1.10;0.70;;;22.10;45.80;;;;;;5054648;28;20025;-64
2022/05/30 11:17:47;;;;;;;0.85;0.65;;;22.10;45.70;;;;;;5054924;28;20127;-64
2022/05/30 11:20:28;;;;;;;1.38;0.73;;;22.10;45.70;;;;;;5058497;28;20037;-60
2022/05/30 11:22:56;;;;;;;1.63;0.80;;;22.10;45.70;;;;;;5056074;28;20039;-59
2022/05/30 11:25:40;;;;;;;0.80;0.70;;;22.10;45.60;;;;;;5058713;28;20390;-62
2022/05/30 11:28:32;;;;;;;1.48;0.70;;;22.10;45.60;;;;;;5059774;28;20036;-63
2022/05/30 11:31:19;;;;;;;1.98;0.68;;;22.10;45.60;;;;;;5058210;28;20365;-59
2022/05/30 11:33:54;;;;;;;0.80;0.70;;;22.10;45.60;;;;;;5060699;28;20030;-60
2022/05/30 11:36:27;;;;;;;1.25;0.70;;;22.10;45.50;;;;;;5056376;28;20308;-60
2022/05/30 11:39:26;;;;;;;1.40;0.70;;;22.10;45.60;;;;;;5056907;28;20051;-64
2022/05/30 11:42:20;;;;;;;0.98;0.70;;;22.10;45.50;;;;;;5055189;28;20242;-59
2022/05/30 11:44:50;;;;;;;2.15;0.80;;;22.20;45.60;;;;;;5054473;28;20031;-61
2022/05/30 11:47:30;;;;;;;1.80;0.70;;;22.20;45.60;;;;;;5056881;28;20395;-60
2022/05/30 11:50:35;;;;;;;1.13;0.80;;;22.20;45.60;;;;;;5055648;28;20091;-63
2022/05/30 11:53:19;;;;;;;1.98;0.80;;;22.20;45.50;;;;;;5053310;28;20123;-63
2022/05/30 11:56:12;;;;;;;1.00;0.70;;;22.20;45.50;;;;;;5056066;28;20115;-61
2022/05/30 11:58:52;;;;;;;0.90;0.70;;;22.20;45.60;;;;;;5056824;28;20123;-58
2022/05/30 12:01:21;;;;;;;1.55;0.80;;;22.20;45.60;;;;;;5055810;28;20058;-62
2022/05/30 12:04:23;;;;;;;1.60;0.80;;;22.20;45.60;;;;;;5055390;28;20036;-63
2022/05/30 12:07:17;;;;;;;0.90;0.60;;;22.20;45.60;;;;;;5054186;28;20163;-63
2022/05/30 12:10:13;;;;;;;1.23;0.80;;;22.20;45.60;;;;;;5052844;28;20090;-60
2022/05/30 12:12:48;;;;;;;1.73;0.70;;;22.20;45.60;;;;;;5057277;28;20593;-58
2022/05/30 12:15:32;;;;;;;0.90;0.57;;;22.20;45.60;;;;;;5055881;28;20047;-59
2022/05/30 12:24:01;;;;;;;1.23;0.63;;;22.20;45.60;;;;;;5054472;28;20356;-63
2022/05/30 12:26:54;;;;;;;1.20;0.70;;;22.20;45.60;;;;;;5056080;28;20040;-60
2022/05/30 12:29:38;;;;;;;1.40;0.80;;;22.20;45.60;;;;;;5044904;28;20461;-60
2022/05/30 12:32:17;;;;;;;0.98;0.70;;;22.20;45.60;;;;;;5054573;28;20041;-61
2022/05/30 12:35:01;;;;;;;;;;;22.20;45.50;;;;;;5057228;28;20134;-62
2022/05/30 12:37:44;;;;;;;1.77;0.90;;;22.20;45.50;;;;;;5053388;28;19912;-58
2022/05/30 12:40:25;;;;;;;0.90;0.70;;;22.20;45.50;;;;;;5055856;28;20041;-62
2022/05/30 12:43:32;;;;;;;1.40;0.70;;;22.20;45.40;;;;;;5055690;28;20033;-62
2022/05/30 12:45:57;;;;;;;1.85;0.75;;;22.30;45.50;;;;;;5055946;28;20028;-61
2022/05/30 12:48:37;;;;;;;1.55;0.88;;;22.30;45.50;;;;;;5055152;28;20024;-58
2022/05/30 12:51:14;;;;;;;1.40;0.73;;;22.30;45.40;;;;;;5054135;28;20024;-62
2022/05/30 12:53:55;;;;;;;1.50;0.80;;;22.20;45.40;;;;;;5054772;28;20138;-58
2022/05/30 12:56:39;;;;;;;0.75;0.63;;;22.30;45.40;;;;;;5058976;28;20085;-58
2022/05/30 12:59:16;;;;;;;1.60;0.70;;;22.30;45.40;;;;;;5056715;28;20040;-59
2022/05/30 13:01:45;;;;;;;1.00;0.60;;;22.20;45.40;;;;;;5055429;28;20036;-64
2022/05/30 13:04:16;;;;;;;1.43;0.80;;;22.30;45.40;;;;;;5058991;28;20032;-60
2022/05/30 13:06:54;;;;;;;1.52;0.73;;;22.30;45.40;;;;;;5054265;28;20259;-59
2022/05/30 13:09:40;;;;;;;1.05;0.70;;;22.30;45.40;;;;;;5056597;28;20021;-59
2022/05/30 13:12:19;;;;;;;1.75;0.80;;;22.30;45.40;;;;;;5058043;28;20458;-60
2022/05/30 13:15:00;;;;;;;;;;;22.30;45.30;;;;;;5059222;28;20024;-61
2022/05/30 13:17:51;;;;;;;1.63;0.52;;;22.30;45.30;;;;;;5056831;28;20400;-59
2022/05/30 13:20:29;;;;;;;1.58;0.80;;;22.30;45.30;;;;;;5056625;28;20020;-59
2022/05/30 13:22:59;;;;;;;1.10;0.77;;;22.30;45.30;;;;;;5055513;28;20041;-58
2022/05/30 13:25:31;;;;;;;0.98;0.60;;;22.30;45.30;;;;;;5055641;28;20034;-63
2022/05/30 13:28:21;;;;;;;1.02;0.65;;;22.30;45.30;;;;;;5057788;28;20376;-61
2022/05/30 13:30:47;;;;;;;0.90;0.70;;;22.30;45.40;;;;;;5056061;28;20032;-58
2022/05/30 13:33:21;;;;;;;1.67;0.73;;;22.30;45.30;;;;;;5056650;28;20456;-63